sensor_id;sensor_type;location;lat;lon;timestamp;noise_LAeq;noise_LA_min;noise_LA_max;noise_LA01;noise_LA95
80953;Laerm;70415;51.660;5.824;2023-07-29T00:01:42;30.18;28.96;39.38;;
80953;Laerm;70415;51.660;5.824;2023-07-29T00:05:42;29.97;28.84;37.53;;
80953;Laerm;70415;51.660;5.824;2023-07-29T00:09:44;31.39;28.79;57.71;;
80953;Laerm;70415;51.660;5.824;2023-07-29T00:13:42;29.7;28.73;33.67;;
80953;Laerm;70415;51.660;5.824;2023-07-29T00:17:42;30.05;28.82;36.21;;
80953;Laerm;70415;51.660;5.824;2023-07-29T00:21:42;31.52;28.79;45.55;;
80953;Laerm;70415;51.660;5.824;2023-07-29T00:25:42;31.92;29.02;51.13;;
80953;Laerm;70415;51.660;5.824;2023-07-29T00:29:42;29.65;28.96;32.06;;
80953;Laerm;70415;51.660;5.824;2023-07-29T00:33:42;29.61;28.8;30.53;;
80953;Laerm;70415;51.660;5.824;2023-07-29T00:37:42;29.55;28.68;35.71;;
80953;Laerm;70415;51.660;5.824;2023-07-29T00:41:45;29.56;28.82;31.88;;
80953;Laerm;70415;51.660;5.824;2023-07-29T00:45:42;29.5;28.7;31.61;;
80953;Laerm;70415;51.660;5.824;2023-07-29T00:49:42;30.56;28.65;57.79;;
80953;Laerm;70415;51.660;5.824;2023-07-29T00:53:42;29.5;28.71;31.88;;
80953;Laerm;70415;51.660;5.824;2023-07-29T00:57:42;33.58;28.74;51.6;;
80953;Laerm;70415;51.660;5.824;2023-07-29T01:01:42;29.58;28.73;45.75;;
80953;Laerm;70415;51.660;5.824;2023-07-29T01:05:45;29.51;28.66;31.25;;
80953;Laerm;70415;51.660;5.824;2023-07-29T01:09:43;29.48;28.66;31.35;;
80953;Laerm;70415;51.660;5.824;2023-07-29T01:13:44;29.49;28.57;30.32;;
80953;Laerm;70415;51.660;5.824;2023-07-29T01:17:43;29.5;28.71;35.99;;
80953;Laerm;70415;51.660;5.824;2023-07-29T01:21:42;29.63;28.69;33.9;;
80953;Laerm;70415;51.660;5.824;2023-07-29T01:25:42;31.55;29.05;51.06;;
80953;Laerm;70415;51.660;5.824;2023-07-29T01:29:42;29.78;28.93;37.64;;
80953;Laerm;70415;51.660;5.824;2023-07-29T01:33:44;29.94;28.95;48.34;;
80953;Laerm;70415;51.660;5.824;2023-07-29T01:37:43;29.76;28.95;30.67;;
80953;Laerm;70415;51.660;5.824;2023-07-29T01:41:42;29.74;28.99;31.2;;
80953;Laerm;70415;51.660;5.824;2023-07-29T01:45:42;29.71;28.9;30.55;;
80953;Laerm;70415;51.660;5.824;2023-07-29T01:49:42;29.7;28.91;33.58;;
80953;Laerm;70415;51.660;5.824;2023-07-29T01:53:42;29.7;28.9;31.88;;
80953;Laerm;70415;51.660;5.824;2023-07-29T01:57:42;34.75;28.83;54.06;;
80953;Laerm;70415;51.660;5.824;2023-07-29T02:01:42;29.7;28.76;30.69;;
80953;Laerm;70415;51.660;5.824;2023-07-29T02:05:42;29.81;28.9;47.01;;
80953;Laerm;70415;51.660;5.824;2023-07-29T02:09:42;29.69;28.9;30.4;;
80953;Laerm;70415;51.660;5.824;2023-07-29T02:13:42;29.69;28.83;31.22;;
80953;Laerm;70415;51.660;5.824;2023-07-29T02:17:49;29.72;28.91;31.52;;
80953;Laerm;70415;51.660;5.824;2023-07-29T02:21:42;29.69;28.96;32.14;;
80953;Laerm;70415;51.660;5.824;2023-07-29T02:25:42;31.65;28.9;50.32;;
80953;Laerm;70415;51.660;5.824;2023-07-29T02:29:42;29.67;28.82;32.86;;
80953;Laerm;70415;51.660;5.824;2023-07-29T02:33:43;29.49;28.69;31.47;;
80953;Laerm;70415;51.660;5.824;2023-07-29T02:37:42;29.54;28.82;33.47;;
80953;Laerm;70415;51.660;5.824;2023-07-29T02:41:42;29.6;28.77;45.3;;
80953;Laerm;70415;51.660;5.824;2023-07-29T02:45:42;29.51;28.71;35.32;;
80953;Laerm;70415;51.660;5.824;2023-07-29T02:49:48;29.54;28.7;34.19;;
80953;Laerm;70415;51.660;5.824;2023-07-29T02:53:42;29.55;28.7;32.26;;
80953;Laerm;70415;51.660;5.824;2023-07-29T02:57:42;35.22;28.53;53.07;;
80953;Laerm;70415;51.660;5.824;2023-07-29T03:01:42;29.5;28.62;30.39;;
80953;Laerm;70415;51.660;5.824;2023-07-29T03:05:42;29.49;28.38;30.3;;
80953;Laerm;70415;51.660;5.824;2023-07-29T03:09:43;29.5;28.69;30.27;;
80953;Laerm;70415;51.660;5.824;2023-07-29T03:13:43;30.66;28.75;57.47;;
80953;Laerm;70415;51.660;5.824;2023-07-29T03:21:43;29.54;28.51;31.06;;
80953;Laerm;70415;51.660;5.824;2023-07-29T03:25:42;31.63;28.85;51.35;;
80953;Laerm;70415;51.660;5.824;2023-07-29T03:29:43;29.57;28.57;33.82;;
80953;Laerm;70415;51.660;5.824;2023-07-29T03:33:42;29.56;28.6;32.26;;
80953;Laerm;70415;51.660;5.824;2023-07-29T03:37:42;29.57;28.71;31.61;;
80953;Laerm;70415;51.660;5.824;2023-07-29T03:41:42;29.53;28.8;37.73;;
80953;Laerm;70415;51.660;5.824;2023-07-29T03:45:43;29.63;28.82;36.95;;
80953;Laerm;70415;51.660;5.824;2023-07-29T03:49:42;29.72;28.84;47.89;;
80953;Laerm;70415;51.660;5.824;2023-07-29T03:53:44;29.77;28.7;32.67;;
80953;Laerm;70415;51.660;5.824;2023-07-29T03:57:43;35.85;28.99;52.33;;
80953;Laerm;70415;51.660;5.824;2023-07-29T04:01:43;29.78;29.03;31.38;;
80953;Laerm;70415;51.660;5.824;2023-07-29T04:05:43;36.85;29.01;69.57;;
80953;Laerm;70415;51.660;5.824;2023-07-29T04:09:43;29.77;29.01;30.93;;
80953;Laerm;70415;51.660;5.824;2023-07-29T04:13:43;29.84;28.85;35.48;;
80953;Laerm;70415;51.660;5.824;2023-07-29T04:17:43;29.79;28.9;36.74;;
80953;Laerm;70415;51.660;5.824;2023-07-29T04:21:43;29.8;28.98;44.47;;
80953;Laerm;70415;51.660;5.824;2023-07-29T04:25:45;31.57;28.91;50.16;;
80953;Laerm;70415;51.660;5.824;2023-07-29T04:29:43;29.89;28.91;37.01;;
80953;Laerm;70415;51.660;5.824;2023-07-29T04:33:43;29.85;28.93;41.08;;
80953;Laerm;70415;51.660;5.824;2023-07-29T04:37:43;29.87;28.94;33.29;;
80953;Laerm;70415;51.660;5.824;2023-07-29T04:41:43;29.99;28.97;33.29;;
80953;Laerm;70415;51.660;5.824;2023-07-29T04:45:43;30.01;28.91;33.92;;
80953;Laerm;70415;51.660;5.824;2023-07-29T04:49:43;32.48;29.03;61.1;;
80953;Laerm;70415;51.660;5.824;2023-07-29T04:53:43;30.03;29;46.44;;
80953;Laerm;70415;51.660;5.824;2023-07-29T04:57:43;36.85;28.95;54.15;;
80953;Laerm;70415;51.660;5.824;2023-07-29T05:01:43;29.82;28.66;41.6;;
80953;Laerm;70415;51.660;5.824;2023-07-29T05:05:43;29.58;28.81;32.8;;
80953;Laerm;70415;51.660;5.824;2023-07-29T05:09:43;29.68;28.8;39.67;;
80953;Laerm;70415;51.660;5.824;2023-07-29T05:13:43;29.72;28.93;35.51;;
80953;Laerm;70415;51.660;5.824;2023-07-29T05:17:43;29.66;28.82;35.34;;
80953;Laerm;70415;51.660;5.824;2023-07-29T05:21:43;29.61;28.65;32.71;;
80953;Laerm;70415;51.660;5.824;2023-07-29T05:25:43;31.84;28.74;51.04;;
80953;Laerm;70415;51.660;5.824;2023-07-29T05:29:43;29.89;28.71;47.77;;
80953;Laerm;70415;51.660;5.824;2023-07-29T05:33:43;29.77;28.83;33.23;;
80953;Laerm;70415;51.660;5.824;2023-07-29T05:37:43;29.82;28.73;41.86;;
80953;Laerm;70415;51.660;5.824;2023-07-29T05:41:43;29.76;28.83;34.66;;
80953;Laerm;70415;51.660;5.824;2023-07-29T05:45:43;30.2;28.82;34.8;;
80953;Laerm;70415;51.660;5.824;2023-07-29T05:49:43;29.79;28.72;35.69;;
80953;Laerm;70415;51.660;5.824;2023-07-29T05:53:43;32.65;29;51.37;;
80953;Laerm;70415;51.660;5.824;2023-07-29T05:57:43;37.64;28.87;53.03;;
80953;Laerm;70415;51.660;5.824;2023-07-29T06:01:44;31.97;30.05;47.9;;
80953;Laerm;70415;51.660;5.824;2023-07-29T06:05:43;30.72;28.98;37.31;;
80953;Laerm;70415;51.660;5.824;2023-07-29T06:09:43;30.46;28.73;36.14;;
80953;Laerm;70415;51.660;5.824;2023-07-29T06:13:43;31.04;28.98;36.93;;
80953;Laerm;70415;51.660;5.824;2023-07-29T06:17:43;32.2;28.78;43.42;;
80953;Laerm;70415;51.660;5.824;2023-07-29T06:21:43;33.14;29.95;40.44;;
80953;Laerm;70415;51.660;5.824;2023-07-29T06:25:43;34.29;30.27;50.22;;
80953;Laerm;70415;51.660;5.824;2023-07-29T06:29:43;41.51;29.94;69.28;;
80953;Laerm;70415;51.660;5.824;2023-07-29T06:33:43;51.89;30.14;77.27;;
80953;Laerm;70415;51.660;5.824;2023-07-29T06:37:43;53.56;30.52;77.38;;
80953;Laerm;70415;51.660;5.824;2023-07-29T06:41:43;56.97;30.23;81.44;;
80953;Laerm;70415;51.660;5.824;2023-07-29T06:45:46;58.86;30.58;85.89;;
80953;Laerm;70415;51.660;5.824;2023-07-29T06:49:43;43.1;30.73;68.91;;
80953;Laerm;70415;51.660;5.824;2023-07-29T06:53:44;42.51;30.72;66.21;;
80953;Laerm;70415;51.660;5.824;2023-07-29T06:57:43;46.96;30.68;71.91;;
80953;Laerm;70415;51.660;5.824;2023-07-29T07:01:43;51.27;30.34;79.97;;
80953;Laerm;70415;51.660;5.824;2023-07-29T07:05:43;53.69;30.27;79.53;;
80953;Laerm;70415;51.660;5.824;2023-07-29T07:09:43;58.23;30.39;89.45;;
80953;Laerm;70415;51.660;5.824;2023-07-29T07:13:43;36.68;30.36;58.99;;
80953;Laerm;70415;51.660;5.824;2023-07-29T07:17:45;57.89;30.32;86.32;;
80953;Laerm;70415;51.660;5.824;2023-07-29T07:21:43;58.78;30.45;83.79;;
80953;Laerm;70415;51.660;5.824;2023-07-29T07:25:43;55.31;30.42;84.02;;
80953;Laerm;70415;51.660;5.824;2023-07-29T07:29:43;33.76;30.15;56.19;;
80953;Laerm;70415;51.660;5.824;2023-07-29T07:33:43;38.38;29.92;64.7;;
80953;Laerm;70415;51.660;5.824;2023-07-29T07:37:43;46.87;30.03;78.93;;
80953;Laerm;70415;51.660;5.824;2023-07-29T07:41:43;31.6;30;38.04;;
80953;Laerm;70415;51.660;5.824;2023-07-29T07:45:43;57.39;29.97;87.96;;
80953;Laerm;70415;51.660;5.824;2023-07-29T07:49:47;57.99;30.91;88.87;;
80953;Laerm;70415;51.660;5.824;2023-07-29T07:53:43;55.6;30.78;86.2;;
80953;Laerm;70415;51.660;5.824;2023-07-29T07:57:43;46.72;30.94;66.92;;
80953;Laerm;70415;51.660;5.824;2023-07-29T08:01:43;36.2;30.63;53.69;;
80953;Laerm;70415;51.660;5.824;2023-07-29T08:05:43;35.03;30.69;51.41;;
80953;Laerm;70415;51.660;5.824;2023-07-29T08:09:43;62.75;30.12;96;;
80953;Laerm;70415;51.660;5.824;2023-07-29T08:13:43;64.85;30.53;88.16;;
80953;Laerm;70415;51.660;5.824;2023-07-29T08:17:43;67.04;31.26;88.67;;
80953;Laerm;70415;51.660;5.824;2023-07-29T08:21:45;67.98;30.69;85.26;;
80953;Laerm;70415;51.660;5.824;2023-07-29T08:25:43;67.56;30.16;82.74;;
80953;Laerm;70415;51.660;5.824;2023-07-29T08:29:43;68.48;30.91;88.67;;
80953;Laerm;70415;51.660;5.824;2023-07-29T08:33:43;72.53;30.88;97.26;;
80953;Laerm;70415;51.660;5.824;2023-07-29T08:37:43;64.51;30.73;87.81;;
80953;Laerm;70415;51.660;5.824;2023-07-29T08:41:45;33.89;30.95;43.6;;
80953;Laerm;70415;51.660;5.824;2023-07-29T08:45:43;34.11;30.98;46.09;;
80953;Laerm;70415;51.660;5.824;2023-07-29T08:49:43;34.67;31.06;47.26;;
80953;Laerm;70415;51.660;5.824;2023-07-29T08:53:43;34.49;31.19;48.9;;
80953;Laerm;70415;51.660;5.824;2023-07-29T08:57:43;48.88;30.58;75.87;;
80953;Laerm;70415;51.660;5.824;2023-07-29T09:01:43;58.5;30.56;90.14;;
80953;Laerm;70415;51.660;5.824;2023-07-29T09:05:43;46.99;30.58;76.42;;
80953;Laerm;70415;51.660;5.824;2023-07-29T09:09:43;55.53;30.77;78.48;;
80953;Laerm;70415;51.660;5.824;2023-07-29T09:13:43;35.84;30.66;63.14;;
80953;Laerm;70415;51.660;5.824;2023-07-29T09:17:43;41.38;30.47;72.43;;
80953;Laerm;70415;51.660;5.824;2023-07-29T09:21:45;32.83;30.18;54.41;;
80953;Laerm;70415;51.660;5.824;2023-07-29T09:25:46;34.67;30.43;55.6;;
80953;Laerm;70415;51.660;5.824;2023-07-29T09:29:43;34.2;30.74;59.85;;
80953;Laerm;70415;51.660;5.824;2023-07-29T09:33:43;33.34;30.47;43.22;;
80953;Laerm;70415;51.660;5.824;2023-07-29T09:37:43;32.12;30.28;45.05;;
80953;Laerm;70415;51.660;5.824;2023-07-29T09:41:47;32.77;30.68;42.14;;
80953;Laerm;70415;51.660;5.824;2023-07-29T09:45:43;33.03;30.03;43.62;;
80953;Laerm;70415;51.660;5.824;2023-07-29T09:49:43;32.76;30;42.98;;
80953;Laerm;70415;51.660;5.824;2023-07-29T09:53:44;36.14;30.72;60.49;;
80953;Laerm;70415;51.660;5.824;2023-07-29T09:57:45;42.23;31.15;57.63;;
80953;Laerm;70415;51.660;5.824;2023-07-29T10:01:43;33.83;30.92;48.67;;
80953;Laerm;70415;51.660;5.824;2023-07-29T10:05:43;35.92;31.29;49.11;;
80953;Laerm;70415;51.660;5.824;2023-07-29T10:09:44;54.6;31.99;75.8;;
80953;Laerm;70415;51.660;5.824;2023-07-29T10:13:43;46.23;30.45;63.96;;
80953;Laerm;70415;51.660;5.824;2023-07-29T10:17:43;46.56;29.26;64.1;;
80953;Laerm;70415;51.660;5.824;2023-07-29T10:21:43;38.5;28.87;60.12;;
80953;Laerm;70415;51.660;5.824;2023-07-29T10:25:57;47.87;29.27;61.29;;
80953;Laerm;70415;51.660;5.824;2023-07-29T10:29:45;50.89;32.63;64.75;;
80953;Laerm;70415;51.660;5.824;2023-07-29T10:33:43;51.66;32.3;62.9;;
80953;Laerm;70415;51.660;5.824;2023-07-29T10:37:43;54.37;31.29;79.06;;
80953;Laerm;70415;51.660;5.824;2023-07-29T10:41:59;54.81;34.73;79.48;;
80953;Laerm;70415;51.660;5.824;2023-07-29T10:45:43;52.43;34.7;77.06;;
80953;Laerm;70415;51.660;5.824;2023-07-29T10:49:44;50.42;33.7;60.34;;
80953;Laerm;70415;51.660;5.824;2023-07-29T10:53:43;50.45;31.79;76.1;;
80953;Laerm;70415;51.660;5.824;2023-07-29T10:57:43;52.08;30.97;78.95;;
80953;Laerm;70415;51.660;5.824;2023-07-29T11:01:50;48.07;31.48;64.47;;
80953;Laerm;70415;51.660;5.824;2023-07-29T11:05:45;45.85;32.42;59.1;;
80953;Laerm;70415;51.660;5.824;2023-07-29T11:09:51;43.87;31.06;57.77;;
80953;Laerm;70415;51.660;5.824;2023-07-29T11:13:43;52.97;31.66;66.37;;
80953;Laerm;70415;51.660;5.824;2023-07-29T11:17:44;46.99;32.2;62.46;;
80953;Laerm;70415;51.660;5.824;2023-07-29T11:21:43;43.46;31.71;52.08;;
80953;Laerm;70415;51.660;5.824;2023-07-29T11:25:43;44.77;31.07;59.42;;
80953;Laerm;70415;51.660;5.824;2023-07-29T11:29:43;42.99;30.2;50.95;;
80953;Laerm;70415;51.660;5.824;2023-07-29T11:33:47;42;30.82;54.19;;
80953;Laerm;70415;51.660;5.824;2023-07-29T11:37:44;41.04;30.31;59.23;;
80953;Laerm;70415;51.660;5.824;2023-07-29T11:41:43;52.48;30.07;78.78;;
80953;Laerm;70415;51.660;5.824;2023-07-29T11:45:43;52.65;30.24;76.06;;
80953;Laerm;70415;51.660;5.824;2023-07-29T11:49:44;32.24;30.56;48.54;;
80953;Laerm;70415;51.660;5.824;2023-07-29T11:53:43;32.76;30.15;50.08;;
80953;Laerm;70415;51.660;5.824;2023-07-29T11:57:44;38.71;30.07;64.15;;
80953;Laerm;70415;51.660;5.824;2023-07-29T12:01:43;40.6;30.26;67.25;;
80953;Laerm;70415;51.660;5.824;2023-07-29T12:05:44;56.88;30.39;90.41;;
80953;Laerm;70415;51.660;5.824;2023-07-29T12:09:44;63.64;30.29;95.13;;
80953;Laerm;70415;51.660;5.824;2023-07-29T12:13:43;34.98;32.52;47.82;;
80953;Laerm;70415;51.660;5.824;2023-07-29T12:17:44;50.88;31.21;81.58;;
80953;Laerm;70415;51.660;5.824;2023-07-29T12:21:44;35.98;30.43;60.21;;
80953;Laerm;70415;51.660;5.824;2023-07-29T12:25:44;34.69;29.33;58.13;;
80953;Laerm;70415;51.660;5.824;2023-07-29T12:29:44;47.18;29.62;72.89;;
80953;Laerm;70415;51.660;5.824;2023-07-29T12:33:44;46.07;29.62;77.13;;
80953;Laerm;70415;51.660;5.824;2023-07-29T12:37:44;40.43;30.53;63.79;;
80953;Laerm;70415;51.660;5.824;2023-07-29T12:41:44;43.95;30.67;55.25;;
80953;Laerm;70415;51.660;5.824;2023-07-29T12:45:44;47.22;35.35;64.15;;
80953;Laerm;70415;51.660;5.824;2023-07-29T12:49:44;51.15;35.41;75.65;;
80953;Laerm;70415;51.660;5.824;2023-07-29T12:53:44;48.89;32.64;72.66;;
80953;Laerm;70415;51.660;5.824;2023-07-29T12:57:47;59.19;31;86.88;;
80953;Laerm;70415;51.660;5.824;2023-07-29T13:01:44;49.08;31.59;71.63;;
80953;Laerm;70415;51.660;5.824;2023-07-29T13:05:44;44.04;30.51;58.43;;
80953;Laerm;70415;51.660;5.824;2023-07-29T13:09:44;43.95;30.05;62.68;;
80953;Laerm;70415;51.660;5.824;2023-07-29T13:13:44;43.98;29.99;53.49;;
80953;Laerm;70415;51.660;5.824;2023-07-29T13:17:44;44.33;30.66;61.45;;
80953;Laerm;70415;51.660;5.824;2023-07-29T13:21:44;48.38;30.76;67.12;;
80953;Laerm;70415;51.660;5.824;2023-07-29T13:25:44;48.79;30.27;60.2;;
80953;Laerm;70415;51.660;5.824;2023-07-29T13:29:45;44.85;30.15;59.52;;
80953;Laerm;70415;51.660;5.824;2023-07-29T13:33:44;44.8;29.89;67.51;;
80953;Laerm;70415;51.660;5.824;2023-07-29T13:37:44;62.25;36.04;88.06;;
80953;Laerm;70415;51.660;5.824;2023-07-29T13:41:44;51.37;33.58;69.02;;
80953;Laerm;70415;51.660;5.824;2023-07-29T13:45:44;51.77;36.62;66.84;;
80953;Laerm;70415;51.660;5.824;2023-07-29T13:49:44;52.46;35.63;72.3;;
80953;Laerm;70415;51.660;5.824;2023-07-29T13:53:44;45.48;31.08;60.8;;
80953;Laerm;70415;51.660;5.824;2023-07-29T13:57:44;45.69;30.29;63.39;;
80953;Laerm;70415;51.660;5.824;2023-07-29T14:01:47;38.01;30.15;56.58;;
80953;Laerm;70415;51.660;5.824;2023-07-29T14:05:44;38.66;29.53;61.37;;
80953;Laerm;70415;51.660;5.824;2023-07-29T14:09:44;38.43;29.53;53.81;;
80953;Laerm;70415;51.660;5.824;2023-07-29T14:13:44;54.01;29.92;77.86;;
80953;Laerm;70415;51.660;5.824;2023-07-29T14:17:44;46.87;29.26;63.86;;
80953;Laerm;70415;51.660;5.824;2023-07-29T14:21:44;49.29;29.56;67.12;;
80953;Laerm;70415;51.660;5.824;2023-07-29T14:25:44;48.95;32.04;67.19;;
80953;Laerm;70415;51.660;5.824;2023-07-29T14:29:44;49.82;31.24;67.65;;
80953;Laerm;70415;51.660;5.824;2023-07-29T14:33:44;47.94;31.08;63.84;;
80953;Laerm;70415;51.660;5.824;2023-07-29T14:37:44;48.64;29.17;60.25;;
80953;Laerm;70415;51.660;5.824;2023-07-29T14:41:44;50.17;33.37;64.2;;
80953;Laerm;70415;51.660;5.824;2023-07-29T14:45:44;51.77;34.93;65.13;;
80953;Laerm;70415;51.660;5.824;2023-07-29T14:49:44;52.69;36.41;70.13;;
80953;Laerm;70415;51.660;5.824;2023-07-29T14:53:44;49.42;30.59;64.87;;
80953;Laerm;70415;51.660;5.824;2023-07-29T14:57:44;50.52;31.15;69.67;;
80953;Laerm;70415;51.660;5.824;2023-07-29T15:01:44;53.38;29.44;72.4;;
80953;Laerm;70415;51.660;5.824;2023-07-29T15:05:45;52.8;29.66;76.54;;
80953;Laerm;70415;51.660;5.824;2023-07-29T15:09:44;49.56;29.2;66.52;;
80953;Laerm;70415;51.660;5.824;2023-07-29T15:13:44;48.78;31.75;62.36;;
80953;Laerm;70415;51.660;5.824;2023-07-29T15:17:44;48.92;31.83;68.34;;
80953;Laerm;70415;51.660;5.824;2023-07-29T15:21:44;51.02;31.03;70.32;;
80953;Laerm;70415;51.660;5.824;2023-07-29T15:25:44;51.33;32.41;68.79;;
80953;Laerm;70415;51.660;5.824;2023-07-29T15:29:44;48.3;32.35;58.89;;
80953;Laerm;70415;51.660;5.824;2023-07-29T15:33:44;51.25;31.35;68.18;;
80953;Laerm;70415;51.660;5.824;2023-07-29T15:37:47;51.97;33.97;67.49;;
80953;Laerm;70415;51.660;5.824;2023-07-29T15:41:44;51.6;31.86;71.42;;
80953;Laerm;70415;51.660;5.824;2023-07-29T15:45:44;47.61;31.32;62.18;;
80953;Laerm;70415;51.660;5.824;2023-07-29T15:49:44;49.16;31.74;65.89;;
80953;Laerm;70415;51.660;5.824;2023-07-29T15:53:44;49.67;33.98;67.45;;
80953;Laerm;70415;51.660;5.824;2023-07-29T15:57:44;47.77;29.84;62.41;;
80953;Laerm;70415;51.660;5.824;2023-07-29T16:01:44;51.37;32.93;71.07;;
80953;Laerm;70415;51.660;5.824;2023-07-29T16:05:44;46.81;31.3;61.27;;
80953;Laerm;70415;51.660;5.824;2023-07-29T16:09:47;49.28;31.11;66.87;;
80953;Laerm;70415;51.660;5.824;2023-07-29T16:13:44;47.41;30.59;61.46;;
80953;Laerm;70415;51.660;5.824;2023-07-29T16:17:44;53.79;33.75;79.32;;
80953;Laerm;70415;51.660;5.824;2023-07-29T16:21:44;49.57;30.6;64.82;;
80953;Laerm;70415;51.660;5.824;2023-07-29T16:25:44;54.69;33.91;75.68;;
80953;Laerm;70415;51.660;5.824;2023-07-29T16:29:44;51.58;33.33;72.97;;
80953;Laerm;70415;51.660;5.824;2023-07-29T16:33:44;62.46;34.88;89.04;;
80953;Laerm;70415;51.660;5.824;2023-07-29T16:37:44;63.04;49.71;91.47;;
80953;Laerm;70415;51.660;5.824;2023-07-29T16:41:44;62.86;48.8;88.39;;
80953;Laerm;70415;51.660;5.824;2023-07-29T16:45:44;60.53;48.58;83.34;;
80953;Laerm;70415;51.660;5.824;2023-07-29T16:49:44;56.16;33.61;84.87;;
80953;Laerm;70415;51.660;5.824;2023-07-29T16:53:44;49.46;33.75;67.53;;
80953;Laerm;70415;51.660;5.824;2023-07-29T16:57:44;49.3;32.57;64.36;;
80953;Laerm;70415;51.660;5.824;2023-07-29T17:01:44;51.25;30.33;74.39;;
80953;Laerm;70415;51.660;5.824;2023-07-29T17:05:44;52.44;32.82;80.34;;
80953;Laerm;70415;51.660;5.824;2023-07-29T17:09:44;52.08;33.74;76.43;;
80953;Laerm;70415;51.660;5.824;2023-07-29T17:13:46;52.34;33.37;79.73;;
80953;Laerm;70415;51.660;5.824;2023-07-29T17:17:44;48.92;33.2;67.05;;
80953;Laerm;70415;51.660;5.824;2023-07-29T17:21:44;49.27;33.69;58.83;;
80953;Laerm;70415;51.660;5.824;2023-07-29T17:25:44;49.43;31.97;62.88;;
80953;Laerm;70415;51.660;5.824;2023-07-29T17:29:44;51.41;32.12;78.07;;
80953;Laerm;70415;51.660;5.824;2023-07-29T17:33:44;52.2;30.33;66.49;;
80953;Laerm;70415;51.660;5.824;2023-07-29T17:37:44;60.41;30.02;83.95;;
80953;Laerm;70415;51.660;5.824;2023-07-29T17:41:44;63.86;34.76;88.14;;
80953;Laerm;70415;51.660;5.824;2023-07-29T17:45:44;53.2;34.65;73.53;;
80953;Laerm;70415;51.660;5.824;2023-07-29T17:49:44;53.33;35.73;75.1;;
80953;Laerm;70415;51.660;5.824;2023-07-29T17:53:44;48.68;32.96;66.23;;
80953;Laerm;70415;51.660;5.824;2023-07-29T17:57:44;50.91;33.12;66.98;;
80953;Laerm;70415;51.660;5.824;2023-07-29T18:01:44;45.13;33.25;69.25;;
80953;Laerm;70415;51.660;5.824;2023-07-29T18:05:44;43.27;33.31;62.74;;
80953;Laerm;70415;51.660;5.824;2023-07-29T18:09:44;44.78;32.64;63.84;;
80953;Laerm;70415;51.660;5.824;2023-07-29T18:13:44;48.22;33.62;63.07;;
80953;Laerm;70415;51.660;5.824;2023-07-29T18:17:44;50.43;33.63;75.71;;
80953;Laerm;70415;51.660;5.824;2023-07-29T18:21:44;47.95;31.69;64.93;;
80953;Laerm;70415;51.660;5.824;2023-07-29T18:25:44;50.37;34.69;68.01;;
80953;Laerm;70415;51.660;5.824;2023-07-29T18:29:44;48.28;29.99;67.55;;
80953;Laerm;70415;51.660;5.824;2023-07-29T18:33:44;48.14;32.15;64.08;;
80953;Laerm;70415;51.660;5.824;2023-07-29T18:37:48;47.54;32.58;59.81;;
80953;Laerm;70415;51.660;5.824;2023-07-29T18:41:44;56.56;36.04;79.09;;
80953;Laerm;70415;51.660;5.824;2023-07-29T18:45:44;51.94;32.04;77.29;;
80953;Laerm;70415;51.660;5.824;2023-07-29T18:49:44;52.71;30.17;74.2;;
80953;Laerm;70415;51.660;5.824;2023-07-29T18:53:44;48.86;29.56;65.39;;
80953;Laerm;70415;51.660;5.824;2023-07-29T18:57:44;49.24;29.84;61.43;;
80953;Laerm;70415;51.660;5.824;2023-07-29T19:01:44;47.58;31.3;64.88;;
80953;Laerm;70415;51.660;5.824;2023-07-29T19:05:44;46.94;30.44;60.8;;
80953;Laerm;70415;51.660;5.824;2023-07-29T19:09:47;47.61;29.86;56.26;;
80953;Laerm;70415;51.660;5.824;2023-07-29T19:13:44;49.02;29.54;69.51;;
80953;Laerm;70415;51.660;5.824;2023-07-29T19:17:44;47.32;30.44;61.99;;
80953;Laerm;70415;51.660;5.824;2023-07-29T19:21:44;47.77;29.94;65.67;;
80953;Laerm;70415;51.660;5.824;2023-07-29T19:25:44;48.37;29.41;63.63;;
80953;Laerm;70415;51.660;5.824;2023-07-29T19:29:44;51.01;29.17;73.37;;
80953;Laerm;70415;51.660;5.824;2023-07-29T19:33:44;50.54;29.44;70.16;;
80953;Laerm;70415;51.660;5.824;2023-07-29T19:37:44;50.75;29.73;64.93;;
80953;Laerm;70415;51.660;5.824;2023-07-29T19:41:47;51.35;29.07;72.65;;
80953;Laerm;70415;51.660;5.824;2023-07-29T19:45:45;63.33;30.87;89.17;;
80953;Laerm;70415;51.660;5.824;2023-07-29T19:49:44;60.02;35.1;90.16;;
80953;Laerm;70415;51.660;5.824;2023-07-29T19:53:44;56.33;36.29;83.49;;
80953;Laerm;70415;51.660;5.824;2023-07-29T19:57:44;58.38;32.45;86.13;;
80953;Laerm;70415;51.660;5.824;2023-07-29T20:01:44;51.85;31.22;67.99;;
80953;Laerm;70415;51.660;5.824;2023-07-29T20:05:45;52.98;40.39;67.19;;
80953;Laerm;70415;51.660;5.824;2023-07-29T20:09:44;53.6;38.41;65.32;;
80953;Laerm;70415;51.660;5.824;2023-07-29T20:13:44;50.84;29.52;62.92;;
80953;Laerm;70415;51.660;5.824;2023-07-29T20:17:44;52.7;30.02;65.5;;
80953;Laerm;70415;51.660;5.824;2023-07-29T20:21:44;51.12;29.74;64.34;;
80953;Laerm;70415;51.660;5.824;2023-07-29T20:25:44;52.27;35.37;63.15;;
80953;Laerm;70415;51.660;5.824;2023-07-29T20:29:45;51.47;38.02;64.21;;
80953;Laerm;70415;51.660;5.824;2023-07-29T20:33:44;51.53;29.3;71.06;;
80953;Laerm;70415;51.660;5.824;2023-07-29T20:37:44;46.87;29.32;75.87;;
80953;Laerm;70415;51.660;5.824;2023-07-29T20:41:44;48.27;29.71;74.56;;
80953;Laerm;70415;51.660;5.824;2023-07-29T20:45:50;42.01;29.92;57.06;;
80953;Laerm;70415;51.660;5.824;2023-07-29T20:49:45;41.41;29.41;54.04;;
80953;Laerm;70415;51.660;5.824;2023-07-29T20:53:45;41.42;30.69;53.56;;
80953;Laerm;70415;51.660;5.824;2023-07-29T20:57:45;42.71;30.75;53.67;;
80953;Laerm;70415;51.660;5.824;2023-07-29T21:01:45;40.41;30.45;51.24;;
80953;Laerm;70415;51.660;5.824;2023-07-29T21:05:45;41.3;30.13;60.96;;
80953;Laerm;70415;51.660;5.824;2023-07-29T21:09:45;41.2;29.69;52.52;;
80953;Laerm;70415;51.660;5.824;2023-07-29T21:13:45;40.94;29.92;57.94;;
80953;Laerm;70415;51.660;5.824;2023-07-29T21:17:48;41.77;29.73;55.46;;
80953;Laerm;70415;51.660;5.824;2023-07-29T21:21:45;54.15;29.11;85.87;;
80953;Laerm;70415;51.660;5.824;2023-07-29T21:25:45;32.1;29.03;52.12;;
80953;Laerm;70415;51.660;5.824;2023-07-29T21:29:45;59.68;28.95;84.49;;
80953;Laerm;70415;51.660;5.824;2023-07-29T21:33:45;31.59;28.9;50.64;;
80953;Laerm;70415;51.660;5.824;2023-07-29T21:37:45;30.58;28.86;43.99;;
80953;Laerm;70415;51.660;5.824;2023-07-29T21:41:45;29.72;28.85;47.53;;
80953;Laerm;70415;51.660;5.824;2023-07-29T21:45:45;29.59;28.66;35.79;;
80953;Laerm;70415;51.660;5.824;2023-07-29T21:49:48;29.94;28.75;39.77;;
80953;Laerm;70415;51.660;5.824;2023-07-29T21:53:45;30.19;28.8;52.67;;
80953;Laerm;70415;51.660;5.824;2023-07-29T21:57:45;36.55;28.73;51.37;;
80953;Laerm;70415;51.660;5.824;2023-07-29T22:01:46;29.71;28.73;40.15;;
80953;Laerm;70415;51.660;5.824;2023-07-29T22:05:45;29.64;28.69;31.83;;
80953;Laerm;70415;51.660;5.824;2023-07-29T22:09:45;29.67;28.68;33.24;;
80953;Laerm;70415;51.660;5.824;2023-07-29T22:13:45;29.76;28.75;45.28;;
80953;Laerm;70415;51.660;5.824;2023-07-29T22:17:45;29.66;28.81;31.91;;
80953;Laerm;70415;51.660;5.824;2023-07-29T22:21:45;32.27;28.84;62.69;;
80953;Laerm;70415;51.660;5.824;2023-07-29T22:25:53;30.9;28.89;50.43;;
80953;Laerm;70415;51.660;5.824;2023-07-29T22:29:45;34.65;28.79;66.49;;
80953;Laerm;70415;51.660;5.824;2023-07-29T22:33:49;29.54;28.66;31.62;;